Time;durP1;ratioP1;P1;durP2;ratioP2;P2;SDS_P1;SDS_P2;PMS_P1;PMS_P2;Temp;Humidity;BMP_temperature;BMP_pressure;BME280_temperature;BME280_humidity;BME280_pressure;Samples;Min_cycle;Max_cycle;Signal;HPM_P1;HPM_P2
2023/06/02 00:01:28;;;;;;;8.07;2.88;;;19.90;52.40;;;;;;5053809;28;20318;-73
2023/06/02 00:03:55;;;;;;;4.82;2.70;;;19.90;52.40;;;;;;5036086;28;20202;-73
2023/06/02 00:06:26;;;;;;;6.38;2.88;;;19.90;52.40;;;;;;5054147;28;20261;-73
2023/06/02 00:08:53;;;;;;;7.10;3.20;;;19.90;52.40;;;;;;5054029;28;20188;-74
2023/06/02 00:11:23;;;;;;;6.00;3.03;;;19.90;52.40;;;;;;5053950;28;20215;-74
2023/06/02 00:13:50;;;;;;;7.80;3.40;;;19.90;52.40;;;;;;5036071;28;20713;-73
2023/06/02 00:16:18;;;;;;;5.30;2.88;;;19.80;52.40;;;;;;5053923;28;20212;-73
2023/06/02 00:18:45;;;;;;;6.38;2.40;;;19.80;52.40;;;;;;5036151;28;20199;-73
2023/06/02 00:21:12;;;;;;;6.93;3.00;;;19.80;52.40;;;;;;5053828;28;20199;-73
2023/06/02 00:23:39;;;;;;;9.07;3.03;;;19.80;53.00;;;;;;5053435;28;20194;-73
2023/06/02 00:26:06;;;;;;;6.05;3.17;;;19.80;52.30;;;;;;5053724;28;20615;-74
2023/06/02 00:28:35;;;;;;;9.95;3.17;;;19.80;52.30;;;;;;5053887;28;20230;-74
2023/06/02 00:31:02;;;;;;;6.43;3.00;;;19.80;52.30;;;;;;5053321;28;20184;-73
2023/06/02 00:33:29;;;;;;;7.55;2.83;;;19.80;52.30;;;;;;5053505;28;20216;-74
2023/06/02 00:35:56;;;;;;;6.25;2.58;;;19.80;52.30;;;;;;5053196;28;20238;-73
2023/06/02 00:38:24;;;;;;;5.32;2.42;;;19.80;52.30;;;;;;5053156;28;20238;-73
2023/06/02 00:40:51;;;;;;;7.90;2.50;;;19.80;52.40;;;;;;5053224;28;20192;-74
2023/06/02 00:43:18;;;;;;;5.88;2.22;;;19.80;52.40;;;;;;5053431;28;20215;-73
2023/06/02 00:45:46;;;;;;;5.13;2.47;;;19.80;52.40;;;;;;5019184;28;20653;-73
2023/06/02 00:48:13;;;;;;;5.65;2.58;;;19.80;52.40;;;;;;5053444;28;20222;-73
2023/06/02 00:50:40;;;;;;;6.38;2.55;;;19.80;52.40;;;;;;5053192;28;20245;-73
2023/06/02 00:53:07;;;;;;;7.32;3.38;;;19.80;52.40;;;;;;5052901;28;20323;-73
2023/06/02 00:55:35;;;;;;;7.80;2.90;;;19.80;52.40;;;;;;5053228;28;20270;-74
2023/06/02 00:58:03;;;;;;;9.63;3.15;;;19.80;52.40;;;;;;5053373;28;20597;-74
2023/06/02 01:00:35;;;;;;;6.25;2.83;;;19.70;52.20;;;;;;5034967;28;20286;-73
2023/06/02 01:03:03;;;;;;;9.13;2.55;;;19.70;52.20;;;;;;5032747;28;20216;-73
2023/06/02 01:05:31;;;;;;;7.78;2.55;;;19.70;52.20;;;;;;5032622;28;20196;-74
2023/06/02 01:08:02;;;;;;;7.38;2.70;;;19.70;52.20;;;;;;5033058;28;20222;-73
2023/06/02 01:10:30;;;;;;;7.55;2.90;;;19.70;52.20;;;;;;5032932;28;20188;-73
2023/06/02 01:12:57;;;;;;;5.25;2.72;;;19.70;52.20;;;;;;5033079;28;20232;-73
2023/06/02 01:15:24;;;;;;;5.00;2.88;;;19.70;52.20;;;;;;5032975;28;20192;-73
2023/06/02 01:17:52;;;;;;;8.07;2.80;;;19.70;52.20;;;;;;5032975;28;20228;-73
2023/06/02 01:20:22;;;;;;;8.45;2.97;;;19.70;52.20;;;;;;5032574;28;20678;-73
2023/06/02 01:22:58;;;;;;;5.70;2.75;;;19.70;52.20;;;;;;5032746;28;20220;-73
2023/06/02 01:25:28;;;;;;;7.03;2.60;;;19.70;52.20;;;;;;5032507;28;20681;-73
2023/06/02 01:27:57;;;;;;;6.32;2.60;;;19.70;52.20;;;;;;5032404;28;20226;-73
2023/06/02 01:30:26;;;;;;;7.55;2.30;;;19.70;52.20;;;;;;5032659;28;20200;-73
2023/06/02 01:32:59;;;;;;;6.80;2.90;;;19.70;52.20;;;;;;5032831;28;20282;-73
2023/06/02 01:35:31;;;;;;;10.00;3.28;;;19.70;52.20;;;;;;5032307;28;20672;-73
2023/06/02 01:38:01;;;;;;;6.63;2.38;;;19.60;52.10;;;;;;5032427;28;20222;-73
2023/06/02 01:40:31;;;;;;;8.32;3.30;;;19.60;52.10;;;;;;5032493;28;20273;-74
2023/06/02 01:43:00;;;;;;;4.82;2.38;;;19.60;52.10;;;;;;5032480;28;20220;-73
2023/06/02 01:45:29;;;;;;;7.53;2.80;;;19.60;52.10;;;;;;5032452;28;20246;-73
2023/06/02 01:48:08;;;;;;;6.93;2.88;;;19.60;52.10;;;;;;5031257;28;20403;-73
2023/06/02 01:50:37;;;;;;;9.40;3.55;;;19.60;52.10;;;;;;5032369;28;20188;-73
2023/06/02 01:53:04;;;;;;;6.82;3.03;;;19.60;52.20;;;;;;5032408;28;20294;-73
2023/06/02 01:55:33;;;;;;;8.05;3.10;;;19.60;52.20;;;;;;5032370;28;20185;-73
2023/06/02 01:58:00;;;;;;;6.32;2.80;;;19.60;52.10;;;;;;5032401;28;20323;-73
2023/06/02 02:00:27;;;;;;;6.32;3.10;;;19.60;52.10;;;;;;5032010;28;20815;-73
2023/06/02 02:02:54;;;;;;;5.40;3.17;;;19.60;52.10;;;;;;5030864;28;20270;-74
2023/06/02 02:05:21;;;;;;;6.43;2.65;;;19.60;52.20;;;;;;5032471;28;20283;-72
2023/06/02 02:07:50;;;;;;;7.00;2.72;;;19.60;52.10;;;;;;5032264;28;20216;-73
2023/06/02 02:10:18;;;;;;;7.97;3.10;;;19.60;52.10;;;;;;5030813;28;20223;-72
2023/06/02 02:12:47;;;;;;;8.02;2.75;;;19.50;52.00;;;;;;5031972;28;20322;-73
2023/06/02 02:15:15;;;;;;;8.13;2.70;;;19.60;52.10;;;;;;5032151;28;20598;-73
2023/06/02 02:17:46;;;;;;;6.70;2.55;;;19.50;52.00;;;;;;5035952;28;20220;-72
2023/06/02 02:20:17;;;;;;;6.45;2.83;;;19.60;52.10;;;;;;5036199;28;20199;-73
2023/06/02 02:22:45;;;;;;;6.20;2.65;;;19.60;52.10;;;;;;5035966;28;20710;-73
2023/06/02 02:25:12;;;;;;;7.20;2.85;;;19.50;52.00;;;;;;5036024;28;20192;-73
2023/06/02 02:27:39;;;;;;;9.07;3.13;;;19.60;52.10;;;;;;5036074;28;20224;-73
2023/06/02 02:30:09;;;;;;;5.50;2.80;;;19.50;52.00;;;;;;5035963;28;20196;-73
2023/06/02 02:32:39;;;;;;;7.25;3.47;;;19.50;52.00;;;;;;5035928;28;20319;-73
2023/06/02 02:35:07;;;;;;;8.35;3.28;;;19.50;52.10;;;;;;5036027;28;20196;-73
2023/06/02 02:37:35;;;;;;;5.80;2.75;;;19.50;52.00;;;;;;5036026;28;20216;-73
2023/06/02 02:40:03;;;;;;;6.75;3.05;;;19.50;52.00;;;;;;5035865;28;20193;-74
2023/06/02 02:42:30;;;;;;;6.35;3.13;;;19.50;52.00;;;;;;5035482;28;20216;-74
2023/06/02 02:44:57;;;;;;;6.18;2.90;;;19.50;52.00;;;;;;5035730;28;20199;-73
2023/06/02 02:47:26;;;;;;;6.85;3.20;;;19.50;52.00;;;;;;5035747;28;20212;-73
2023/06/02 02:49:53;;;;;;;5.65;2.70;;;19.50;52.00;;;;;;5035692;28;20185;-74
2023/06/02 02:52:21;;;;;;;10.35;3.10;;;19.50;52.00;;;;;;5035337;28;20232;-73
2023/06/02 02:54:49;;;;;;;6.10;3.03;;;19.50;52.00;;;;;;5033440;28;20207;-73
2023/06/02 02:57:16;;;;;;;8.63;2.95;;;19.50;52.00;;;;;;5033857;28;20582;-74
2023/06/02 02:59:44;;;;;;;6.75;2.90;;;19.50;52.60;;;;;;5035092;28;20199;-73
2023/06/02 03:02:10;;;;;;;6.22;3.08;;;19.50;52.00;;;;;;5049008;28;20245;-73
2023/06/02 03:04:40;;;;;;;7.00;2.97;;;19.40;51.90;;;;;;5037634;28;20218;-73
2023/06/02 03:07:08;;;;;;;5.68;2.50;;;19.50;51.90;;;;;;5054896;28;20303;-73
2023/06/02 03:09:35;;;;;;;7.93;3.00;;;19.50;52.00;;;;;;5055097;28;20658;-73
2023/06/02 03:12:02;;;;;;;8.63;2.83;;;19.50;52.00;;;;;;5055070;28;20220;-73
2023/06/02 03:14:29;;;;;;;5.50;2.45;;;19.40;52.50;;;;;;5037345;28;20278;-74
2023/06/02 03:16:57;;;;;;;8.18;3.20;;;19.40;51.80;;;;;;5054637;28;20759;-73
2023/06/02 03:19:26;;;;;;;8.52;3.65;;;19.40;51.80;;;;;;5054691;28;20574;-73
2023/06/02 03:21:56;;;;;;;7.38;2.75;;;19.40;51.80;;;;;;5055192;28;20306;-74
2023/06/02 03:24:23;;;;;;;6.70;2.47;;;19.40;51.70;;;;;;5054643;28;20199;-74
2023/06/02 03:26:51;;;;;;;6.43;2.90;;;19.40;51.70;;;;;;5054447;28;20705;-73
2023/06/02 03:29:18;;;;;;;7.05;3.00;;;19.40;51.70;;;;;;5036498;28;20192;-73
2023/06/02 03:31:46;;;;;;;6.90;2.92;;;19.40;51.70;;;;;;5054739;28;20215;-74
2023/06/02 03:34:13;;;;;;;6.78;3.28;;;19.40;51.70;;;;;;5054331;28;20215;-74
2023/06/02 03:36:40;;;;;;;8.68;2.85;;;19.40;51.80;;;;;;5054677;28;20198;-73
2023/06/02 03:39:09;;;;;;;10.75;3.72;;;19.40;51.70;;;;;;5054691;28;20202;-74
2023/06/02 03:41:37;;;;;;;6.55;2.80;;;19.40;51.70;;;;;;5054597;28;20192;-73
2023/06/02 03:44:05;;;;;;;3.67;2.38;;;19.40;51.70;;;;;;5054495;28;20320;-74
2023/06/02 03:46:32;;;;;;;8.23;2.60;;;19.40;51.70;;;;;;5054499;28;20190;-73
2023/06/02 03:49:00;;;;;;;7.57;3.08;;;19.40;51.70;;;;;;5054137;28;20198;-74
2023/06/02 03:51:27;;;;;;;6.88;2.75;;;19.40;51.70;;;;;;5054204;28;20198;-73
2023/06/02 03:53:55;;;;;;;8.60;2.85;;;19.40;51.60;;;;;;5036187;28;20720;-74
2023/06/02 03:56:23;;;;;;;11.25;2.80;;;19.40;51.70;;;;;;5036481;28;20603;-74
2023/06/02 03:58:50;;;;;;;9.05;2.83;;;19.40;51.70;;;;;;5053894;28;20650;-73
2023/06/02 04:01:18;;;;;;;7.18;2.60;;;19.40;51.70;;;;;;5054057;28;20270;-73
2023/06/02 04:03:45;;;;;;;8.07;2.70;;;19.30;51.50;;;;;;5054027;28;20217;-74
2023/06/02 04:06:13;;;;;;;4.30;2.30;;;19.30;51.60;;;;;;5053925;28;20590;-73
2023/06/02 04:08:40;;;;;;;6.70;2.60;;;19.30;51.60;;;;;;5053955;28;20226;-73
2023/06/02 04:11:08;;;;;;;7.00;2.85;;;19.30;51.50;;;;;;5053744;28;20645;-73
2023/06/02 04:13:36;;;;;;;5.95;2.67;;;19.30;51.50;;;;;;5054141;28;20238;-73
2023/06/02 04:16:04;;;;;;;6.95;2.40;;;19.30;51.60;;;;;;5053681;28;20275;-73
2023/06/02 04:18:32;;;;;;;4.78;2.30;;;19.30;51.50;;;;;;5053947;28;20212;-73
2023/06/02 04:20:59;;;;;;;5.45;2.33;;;19.30;51.50;;;;;;5036241;28;20191;-73
2023/06/02 04:23:26;;;;;;;5.40;2.15;;;19.30;51.50;;;;;;5053832;28;20306;-73
2023/06/02 04:25:53;;;;;;;5.50;2.58;;;19.30;51.50;;;;;;5053768;28;20660;-74
2023/06/02 04:28:21;;;;;;;5.93;2.47;;;19.30;51.50;;;;;;5054010;28;20226;-73
2023/06/02 04:30:54;;;;;;;5.07;2.08;;;19.30;51.50;;;;;;5053417;28;20710;-73
2023/06/02 04:33:21;;;;;;;4.35;2.20;;;19.30;51.50;;;;;;5053056;28;20314;-73
2023/06/02 04:35:48;;;;;;;6.50;2.15;;;19.30;51.50;;;;;;5053882;28;20184;-74
2023/06/02 04:38:16;;;;;;;4.80;2.30;;;19.30;51.40;;;;;;5053021;28;20302;-73
2023/06/02 04:40:43;;;;;;;3.70;1.95;;;19.30;51.40;;;;;;5053424;28;20188;-73
2023/06/02 04:43:10;;;;;;;7.07;2.38;;;19.30;51.40;;;;;;5030849;28;20219;-73
2023/06/02 04:45:45;;;;;;;3.83;2.05;;;19.30;51.40;;;;;;5053368;28;20353;-73
2023/06/02 04:48:13;;;;;;;5.57;2.05;;;19.30;51.40;;;;;;5036728;28;20696;-73
2023/06/02 04:50:41;;;;;;;5.93;2.03;;;19.20;51.30;;;;;;5053127;28;20187;-73
2023/06/02 04:53:07;;;;;;;4.68;1.90;;;19.30;51.40;;;;;;5053192;28;20239;-74
2023/06/02 04:55:35;;;;;;;4.00;2.45;;;19.30;51.40;;;;;;5053217;28;20554;-73
2023/06/02 04:58:02;;;;;;;3.13;1.92;;;19.30;52.00;;;;;;5053175;28;20226;-73
2023/06/02 05:00:30;;;;;;;6.97;2.28;;;19.30;51.40;;;;;;5053101;28;20190;-73
2023/06/02 05:02:57;;;;;;;4.25;1.88;;;19.30;51.60;;;;;;5053069;28;20223;-73
2023/06/02 05:05:27;;;;;;;3.78;1.98;;;19.20;51.20;;;;;;5052631;28;20658;-73
2023/06/02 05:07:54;;;;;;;3.67;1.88;;;19.20;51.20;;;;;;5034883;28;20215;-74
2023/06/02 05:10:21;;;;;;;5.78;2.00;;;19.20;51.20;;;;;;5052645;28;20187;-73
2023/06/02 05:12:49;;;;;;;4.03;1.92;;;19.20;51.20;;;;;;5018635;28;20639;-73
2023/06/02 05:15:16;;;;;;;4.97;2.35;;;19.20;51.20;;;;;;5052844;28;20231;-73
2023/06/02 05:17:44;;;;;;;6.10;2.38;;;19.20;51.20;;;;;;5052972;28;20579;-73
2023/06/02 05:20:11;;;;;;;4.65;1.77;;;19.20;51.20;;;;;;5035123;28;20184;-73
2023/06/02 05:22:40;;;;;;;3.53;1.70;;;19.20;51.20;;;;;;5052503;28;20598;-73
2023/06/02 05:25:08;;;;;;;5.00;2.03;;;19.20;51.20;;;;;;5034531;28;20199;-73
2023/06/02 05:27:35;;;;;;;5.13;1.90;;;19.20;51.20;;;;;;5052757;28;20237;-73
2023/06/02 05:30:02;;;;;;;4.78;2.15;;;19.20;51.20;;;;;;5052539;28;20187;-73
2023/06/02 05:32:29;;;;;;;4.22;2.22;;;19.20;51.20;;;;;;5052513;28;20302;-73
2023/06/02 05:34:56;;;;;;;4.30;1.83;;;19.20;51.20;;;;;;5052458;28;20230;-73
2023/06/02 05:37:23;;;;;;;3.15;1.85;;;19.20;51.20;;;;;;5034588;28;20693;-73
2023/06/02 05:39:53;;;;;;;3.47;1.95;;;19.20;51.20;;;;;;5052106;28;20190;-73
2023/06/02 05:42:20;;;;;;;4.88;1.98;;;19.10;51.10;;;;;;5052108;28;20616;-73
2023/06/02 05:44:47;;;;;;;4.38;2.10;;;19.10;51.10;;;;;;5052335;28;20183;-72
2023/06/02 05:47:15;;;;;;;3.75;1.83;;;19.10;51.10;;;;;;5034901;28;20223;-73
2023/06/02 05:49:42;;;;;;;5.00;2.10;;;19.10;51.10;;;;;;5052294;28;20195;-73
2023/06/02 05:52:09;;;;;;;3.38;1.80;;;19.10;51.00;;;;;;5051300;28;20253;-73
2023/06/02 05:54:36;;;;;;;4.80;2.10;;;19.10;51.10;;;;;;5052196;28;20215;-73
2023/06/02 05:57:06;;;;;;;5.32;1.95;;;19.10;51.10;;;;;;5034609;28;20221;-73
2023/06/02 05:59:33;;;;;;;2.67;1.63;;;19.10;51.10;;;;;;5052197;28;20183;-72
2023/06/02 06:02:00;;;;;;;5.25;1.80;;;19.10;51.10;;;;;;5051738;28;20227;-73
2023/06/02 06:04:27;;;;;;;4.78;1.92;;;19.10;51.10;;;;;;5052436;28;20218;-72
2023/06/02 06:06:54;;;;;;;2.58;1.50;;;19.10;51.10;;;;;;5052064;28;20191;-73
2023/06/02 06:09:21;;;;;;;3.83;1.60;;;19.10;51.10;;;;;;5051971;28;20188;-72
2023/06/02 06:11:48;;;;;;;4.15;1.83;;;19.10;51.10;;;;;;5051753;28;20308;-72
2023/06/02 06:14:17;;;;;;;5.00;1.80;;;19.10;51.00;;;;;;5051909;28;20212;-72
2023/06/02 06:16:44;;;;;;;4.18;1.90;;;19.10;51.00;;;;;;5052280;28;20188;-73
2023/06/02 06:19:12;;;;;;;4.85;2.05;;;19.10;51.00;;;;;;5051656;28;20706;-74
2023/06/02 06:21:39;;;;;;;4.95;1.48;;;19.10;51.00;;;;;;5034212;28;20653;-74
2023/06/02 06:24:06;;;;;;;4.65;1.73;;;19.10;51.00;;;;;;5052272;28;20591;-74
2023/06/02 06:26:34;;;;;;;4.22;2.00;;;19.10;50.90;;;;;;5051665;28;20229;-73
2023/06/02 06:29:01;;;;;;;6.38;1.80;;;19.10;51.00;;;;;;5051998;28;20215;-74
2023/06/02 06:31:29;;;;;;;3.35;1.48;;;19.10;50.90;;;;;;5051615;28;20653;-73
2023/06/02 06:33:56;;;;;;;8.30;1.73;;;19.10;51.00;;;;;;5051577;28;20231;-73
2023/06/02 06:36:23;;;;;;;4.43;2.00;;;19.10;50.90;;;;;;5045105;28;20202;-73
2023/06/02 06:38:50;;;;;;;4.72;1.90;;;19.10;51.00;;;;;;5033619;28;20231;-73
2023/06/02 06:41:18;;;;;;;3.90;1.92;;;19.10;50.90;;;;;;5031959;28;20199;-73
2023/06/02 06:43:45;;;;;;;5.03;1.80;;;19.10;50.90;;;;;;5043370;28;20298;-73
2023/06/02 06:46:12;;;;;;;6.13;2.25;;;19.10;50.90;;;;;;5034326;28;20197;-78
2023/06/02 06:48:41;;;;;;;6.82;2.20;;;19.10;50.90;;;;;;5039435;28;20254;-76
2023/06/02 06:51:09;;;;;;;7.10;2.40;;;19.10;50.90;;;;;;5049545;28;20223;-76
2023/06/02 06:53:36;;;;;;;5.85;2.10;;;19.10;50.90;;;;;;5049656;28;20226;-76
2023/06/02 06:56:03;;;;;;;8.32;2.63;;;19.10;51.00;;;;;;5042466;28;20196;-76
2023/06/02 06:58:30;;;;;;;4.28;1.98;;;19.10;50.90;;;;;;5039889;28;20211;-76
2023/06/02 07:00:58;;;;;;;6.20;2.20;;;19.10;50.90;;;;;;5049882;28;20238;-79
2023/06/02 07:03:25;;;;;;;5.68;1.95;;;19.20;51.00;;;;;;5060201;28;20290;-75
2023/06/02 07:05:54;;;;;;;8.88;2.10;;;19.20;51.00;;;;;;5053425;28;20583;-77
2023/06/02 07:08:21;;;;;;;10.20;2.10;;;19.20;51.10;;;;;;5043669;28;20206;-79
2023/06/02 07:10:49;;;;;;;8.63;2.30;;;19.20;51.10;;;;;;5074428;28;20187;-80
2023/06/02 07:13:18;;;;;;;12.57;2.53;;;19.30;51.30;;;;;;5055710;28;20219;-77
2023/06/02 07:15:46;;;;;;;7.20;2.10;;;19.30;51.30;;;;;;5037682;28;20199;-77
2023/06/02 07:18:13;;;;;;;12.90;2.35;;;19.30;51.40;;;;;;5042941;28;20231;-77
2023/06/02 07:20:40;;;;;;;12.60;2.42;;;19.40;51.40;;;;;;5050861;28;20188;-77
2023/06/02 07:23:10;;;;;;;10.32;2.35;;;19.50;51.60;;;;;;5059078;28;20791;-79
2023/06/02 07:25:37;;;;;;;14.13;2.60;;;19.50;51.50;;;;;;5070855;28;20676;-77
2023/06/02 07:28:05;;;;;;;15.55;2.78;;;19.60;51.60;;;;;;5070155;28;20301;-79
2023/06/02 07:30:32;;;;;;;6.93;2.15;;;19.60;51.50;;;;;;5054369;28;20192;-76
2023/06/02 07:32:59;;;;;;;7.78;2.30;;;19.70;51.60;;;;;;5051463;28;20215;-78
2023/06/02 07:35:30;;;;;;;4.38;2.35;;;19.80;51.70;;;;;;5047239;28;20211;-78
2023/06/02 07:37:57;;;;;;;7.00;2.13;;;19.90;51.70;;;;;;5050284;28;20223;-80
2023/06/02 07:40:27;;;;;;;9.05;2.15;;;19.90;51.50;;;;;;5047862;28;20202;-83
2023/06/02 07:42:54;;;;;;;7.00;2.28;;;20.00;51.40;;;;;;5051470;28;20306;-82
2023/06/02 07:45:21;;;;;;;11.43;2.78;;;20.00;51.40;;;;;;5049892;28;20205;-75
2023/06/02 07:47:48;;;;;;;8.75;2.50;;;20.10;51.30;;;;;;5045624;28;20255;-78
2023/06/02 07:50:16;;;;;;;8.32;2.20;;;20.10;51.30;;;;;;5032183;28;20303;-78
2023/06/02 07:52:43;;;;;;;3.72;2.30;;;20.10;51.10;;;;;;5055123;28;20262;-79
2023/06/02 07:55:10;;;;;;;5.95;2.50;;;20.20;51.10;;;;;;5052122;28;20234;-81
2023/06/02 07:57:39;;;;;;;6.28;2.50;;;20.20;51.00;;;;;;5048155;28;20238;-79
2023/06/02 08:00:14;;;;;;;6.15;2.42;;;20.30;51.10;;;;;;5069389;28;20198;-80
2023/06/02 08:02:43;;;;;;;8.18;2.47;;;20.30;51.10;;;;;;5069368;28;20221;-80
2023/06/02 08:05:10;;;;;;;8.48;2.70;;;20.40;51.20;;;;;;5069273;28;20221;-77
2023/06/02 08:07:37;;;;;;;4.60;2.35;;;20.40;51.20;;;;;;5060934;28;20610;-79
2023/06/02 08:10:05;;;;;;;8.00;2.70;;;20.50;51.00;;;;;;5049793;28;20684;-78
2023/06/02 08:12:32;;;;;;;9.82;2.70;;;20.50;50.80;;;;;;5051904;28;20558;-75
2023/06/02 08:15:01;;;;;;;12.10;2.90;;;20.60;50.80;;;;;;5069521;28;20452;-81
2023/06/02 08:17:29;;;;;;;10.43;2.38;;;20.60;50.60;;;;;;5070906;28;20202;-83
2023/06/02 08:19:57;;;;;;;11.73;3.03;;;20.60;50.40;;;;;;5054278;28;20207;-80
2023/06/02 08:22:25;;;;;;;8.23;3.13;;;20.60;50.30;;;;;;5049483;28;20207;-76
2023/06/02 08:24:53;;;;;;;10.43;2.72;;;20.70;50.30;;;;;;5032551;28;20208;-76
2023/06/02 08:27:46;;;;;;;12.52;2.50;;;20.70;50.20;;;;;;5049961;28;20196;-78
2023/06/02 08:30:16;;;;;;;14.77;4.18;;;20.70;50.20;;;;;;5048411;28;20192;-78
2023/06/02 08:32:43;;;;;;;21.10;13.88;;;20.80;50.00;;;;;;5050078;28;20306;-76
2023/06/02 08:35:11;;;;;;;15.32;8.60;;;20.80;50.10;;;;;;5030816;28;20231;-84
2023/06/02 08:37:38;;;;;;;15.35;6.53;;;20.80;49.90;;;;;;5049379;28;20797;-76
2023/06/02 08:40:07;;;;;;;15.23;6.50;;;20.90;49.70;;;;;;5057421;28;20253;-76
2023/06/02 08:42:34;;;;;;;13.48;6.30;;;20.90;49.70;;;;;;5049781;28;20612;-80
2023/06/02 08:45:05;;;;;;;19.02;6.10;;;20.90;49.80;;;;;;5069418;28;20838;-76
2023/06/02 08:47:35;;;;;;;19.70;6.18;;;20.90;49.50;;;;;;5052478;28;20305;-80
2023/06/02 08:50:05;;;;;;;11.13;5.65;;;20.90;49.40;;;;;;5044724;28;20720;-77
2023/06/02 08:52:35;;;;;;;12.27;5.25;;;21.00;50.10;;;;;;5049529;28;20271;-77
2023/06/02 08:55:03;;;;;;;15.75;5.07;;;21.00;49.10;;;;;;5042684;28;20591;-78
2023/06/02 08:57:30;;;;;;;16.75;3.97;;;21.00;49.40;;;;;;5049340;28;20206;-81
2023/06/02 08:59:58;;;;;;;11.38;3.70;;;21.00;49.40;;;;;;5068063;28;20209;-76
2023/06/02 09:02:25;;;;;;;8.07;3.97;;;21.00;49.40;;;;;;5053718;28;20697;-81
2023/06/02 09:04:54;;;;;;;13.57;3.88;;;21.10;49.30;;;;;;5049131;28;20928;-76
2023/06/02 09:07:21;;;;;;;13.38;3.90;;;21.00;49.30;;;;;;5036582;28;20207;-80
2023/06/02 09:09:51;;;;;;;15.07;3.72;;;21.10;49.60;;;;;;5046971;28;20735;-79
2023/06/02 09:12:19;;;;;;;11.05;3.40;;;21.10;49.50;;;;;;5047186;28;20206;-77
2023/06/02 09:14:48;;;;;;;13.88;4.35;;;21.10;49.40;;;;;;5048964;28;20239;-80
2023/06/02 09:17:28;;;;;;;14.18;3.50;;;21.10;49.50;;;;;;5048766;28;20731;-77
2023/06/02 09:20:06;;;;;;;12.35;3.25;;;21.10;49.30;;;;;;5047163;28;20257;-79
2023/06/02 09:22:33;;;;;;;13.82;3.63;;;21.10;49.40;;;;;;5048531;28;20551;-76
2023/06/02 09:25:01;;;;;;;18.95;3.50;;;21.10;49.40;;;;;;5048344;28;20196;-75
2023/06/02 09:27:28;;;;;;;9.90;4.00;;;21.10;49.30;;;;;;5048642;28;20225;-75
2023/06/02 09:30:00;;;;;;;15.70;3.70;;;21.10;49.00;;;;;;5046889;28;20210;-78
2023/06/02 09:32:27;;;;;;;13.15;3.47;;;21.10;49.00;;;;;;5030752;28;20677;-77
2023/06/02 09:34:54;;;;;;;10.13;3.33;;;21.10;49.00;;;;;;5047801;28;20676;-78
2023/06/02 09:37:23;;;;;;;20.58;3.58;;;21.00;48.80;;;;;;5049020;28;20304;-76
2023/06/02 09:39:53;;;;;;;14.40;3.58;;;21.10;48.80;;;;;;5048184;28;20228;-75
2023/06/02 09:42:21;;;;;;;17.77;3.78;;;21.00;48.60;;;;;;5047908;28;20238;-76
2023/06/02 09:45:03;;;;;;;29.23;4.80;;;21.00;48.60;;;;;;5029824;28;20235;-77
2023/06/02 09:47:38;;;;;;;30.70;4.15;;;21.00;48.60;;;;;;5036971;28;20211;-77
2023/06/02 09:50:05;;;;;;;15.15;3.38;;;21.00;48.60;;;;;;5030458;28;20282;-77
2023/06/02 09:52:35;;;;;;;17.00;3.83;;;21.00;48.60;;;;;;5048546;28;20207;-78
2023/06/02 09:55:03;;;;;;;25.77;3.97;;;21.00;48.60;;;;;;5048436;28;20215;-77
2023/06/02 09:57:31;;;;;;;22.02;3.60;;;21.00;48.50;;;;;;5048202;28;20298;-74
2023/06/02 10:00:00;;;;;;;17.95;3.78;;;21.00;48.40;;;;;;5049165;28;20274;-76
2023/06/02 10:02:27;;;;;;;21.55;3.60;;;21.00;48.30;;;;;;5029969;28;20246;-76
2023/06/02 10:04:55;;;;;;;13.45;3.65;;;21.00;48.30;;;;;;5047807;28;20311;-76
2023/06/02 10:07:46;;;;;;;16.25;3.55;;;21.00;48.20;;;;;;5014606;28;20200;-75
2023/06/02 10:10:26;;;;;;;19.83;3.78;;;20.90;48.00;;;;;;5044905;28;20204;-77
2023/06/02 10:13:22;;;;;;;17.40;3.58;;;20.90;48.00;;;;;;5048426;28;20223;-77
2023/06/02 10:16:23;;;;;;;14.57;3.65;;;21.00;47.90;;;;;;5068154;28;20983;-76
2023/06/02 10:19:17;;;;;;;63.45;4.68;;;20.90;47.80;;;;;;5056894;28;20801;-77
2023/06/02 10:22:02;;;;;;;11.38;3.38;;;20.90;47.80;;;;;;5046119;28;20281;-77
2023/06/02 10:24:43;;;;;;;12.68;3.40;;;21.00;47.80;;;;;;5030123;28;20235;-75
2023/06/02 10:27:24;;;;;;;13.45;3.70;;;21.00;47.80;;;;;;5047962;28;20202;-75
2023/06/02 10:29:52;;;;;;;15.80;4.00;;;20.90;47.70;;;;;;5047977;28;20902;-77
2023/06/02 10:32:24;;;;;;;14.13;3.92;;;21.00;47.80;;;;;;5048116;28;20219;-76
2023/06/02 10:34:51;;;;;;;10.02;3.25;;;20.90;47.70;;;;;;5048068;28;20235;-77
2023/06/02 10:37:20;;;;;;;12.68;3.58;;;20.90;47.50;;;;;;5049884;28;20196;-77
2023/06/02 10:39:52;;;;;;;8.70;3.67;;;20.90;47.70;;;;;;5051880;28;20616;-76
2023/06/02 10:42:21;;;;;;;9.82;3.85;;;21.00;47.60;;;;;;5052023;28;20202;-76
2023/06/02 10:44:48;;;;;;;10.65;3.53;;;20.90;47.40;;;;;;5052079;28;20238;-77
2023/06/02 10:47:45;;;;;;;15.75;4.00;;;21.00;47.60;;;;;;5051025;28;20673;-76
2023/06/02 10:50:14;;;;;;;9.90;3.35;;;21.00;47.30;;;;;;5050196;28;20207;-75
2023/06/02 10:53:09;;;;;;;10.95;3.40;;;20.90;47.20;;;;;;5050330;28;20238;-77
2023/06/02 10:55:41;;;;;;;10.50;3.58;;;21.00;47.20;;;;;;5050230;28;20221;-75
2023/06/02 10:58:12;;;;;;;8.48;3.40;;;21.00;47.20;;;;;;5049945;28;20310;-75
2023/06/02 11:00:46;;;;;;;9.88;3.80;;;21.00;47.10;;;;;;5032374;28;20687;-75
2023/06/02 11:03:29;;;;;;;10.70;3.88;;;21.00;47.80;;;;;;5050300;28;20218;-75
2023/06/02 11:06:24;;;;;;;16.60;3.75;;;21.00;47.10;;;;;;5046196;28;20285;-75
2023/06/02 11:08:52;;;;;;;10.88;3.60;;;21.00;47.00;;;;;;5046332;28;21785;-75
2023/06/02 11:12:02;;;;;;;9.38;3.50;;;21.00;47.00;;;;;;5029355;28;20210;-75
2023/06/02 11:15:07;;;;;;;10.30;3.65;;;21.00;47.00;;;;;;5047520;28;20219;-75
2023/06/02 11:17:35;;;;;;;11.48;3.60;;;21.00;47.00;;;;;;5049083;28;20207;-75
2023/06/02 11:20:05;;;;;;;10.18;3.60;;;20.90;47.00;;;;;;5048937;28;20223;-76
2023/06/02 11:22:33;;;;;;;9.88;3.85;;;21.00;47.10;;;;;;5031262;28;20199;-75
2023/06/02 11:25:01;;;;;;;8.93;3.70;;;21.00;47.10;;;;;;5048798;28;20227;-75
2023/06/02 11:27:44;;;;;;;8.98;3.83;;;21.00;47.10;;;;;;5049100;28;20761;-75
2023/06/02 11:30:14;;;;;;;10.30;3.95;;;20.90;46.90;;;;;;5051100;28;20286;-75
2023/06/02 11:32:41;;;;;;;8.27;3.45;;;21.00;47.00;;;;;;5049051;28;20257;-75
2023/06/02 11:35:10;;;;;;;11.57;3.50;;;21.00;47.10;;;;;;5049812;28;20589;-75
2023/06/02 11:37:40;;;;;;;7.90;3.30;;;21.00;47.10;;;;;;5050430;28;20201;-76
2023/06/02 11:40:09;;;;;;;11.65;3.97;;;21.00;47.10;;;;;;5048678;28;20273;-76
2023/06/02 11:42:39;;;;;;;11.55;3.67;;;21.00;47.00;;;;;;5050408;28;20204;-83
2023/06/02 11:45:20;;;;;;;9.68;3.20;;;21.00;47.00;;;;;;5047877;28;20281;-75
2023/06/02 11:47:47;;;;;;;8.10;3.50;;;21.00;47.10;;;;;;5050562;28;20203;-77
2023/06/02 11:50:18;;;;;;;6.82;3.15;;;21.00;47.10;;;;;;5050688;28;20192;-76
2023/06/02 11:52:45;;;;;;;11.27;3.72;;;21.00;47.00;;;;;;5049737;28;20188;-75
2023/06/02 11:55:12;;;;;;;8.43;3.10;;;21.00;47.00;;;;;;5032507;28;20235;-75
2023/06/02 11:57:41;;;;;;;7.93;3.08;;;21.00;47.00;;;;;;5032119;28;20570;-78
2023/06/02 12:00:15;;;;;;;10.65;3.40;;;21.00;47.00;;;;;;5050559;28;20226;-78
2023/06/02 12:02:51;;;;;;;9.68;3.00;;;21.00;47.00;;;;;;5049776;28;20797;-75
2023/06/02 12:05:34;;;;;;;10.13;3.88;;;21.00;47.00;;;;;;5047574;28;20199;-75
2023/06/02 12:08:12;;;;;;;10.25;3.42;;;21.00;47.00;;;;;;5047285;28;20622;-74
2023/06/02 12:10:40;;;;;;;6.47;2.95;;;21.00;47.00;;;;;;5039864;28;20202;-77
2023/06/02 12:13:07;;;;;;;11.50;3.40;;;21.00;47.00;;;;;;5024153;28;20199;-76
2023/06/02 12:15:37;;;;;;;8.85;3.70;;;21.00;47.10;;;;;;5062510;28;20257;-81
2023/06/02 12:18:06;;;;;;;8.93;2.92;;;21.00;47.00;;;;;;5046352;28;20212;-75
2023/06/02 12:20:41;;;;;;;8.23;3.22;;;21.00;47.10;;;;;;5042945;28;20198;-75
2023/06/02 12:23:09;;;;;;;9.82;3.22;;;21.00;47.10;;;;;;5049282;28;20560;-75
2023/06/02 12:25:37;;;;;;;11.70;3.42;;;20.90;47.10;;;;;;5061981;28;20183;-74
2023/06/02 12:28:10;;;;;;;10.48;3.35;;;21.00;47.10;;;;;;5064021;28;20206;-75
2023/06/02 12:30:38;;;;;;;7.97;3.17;;;21.00;47.10;;;;;;5044131;28;20202;-75
2023/06/02 12:33:07;;;;;;;10.63;2.90;;;21.00;47.20;;;;;;5068984;28;20824;-74
2023/06/02 12:35:35;;;;;;;7.07;3.20;;;21.00;47.20;;;;;;5068134;28;20618;-75
2023/06/02 12:38:04;;;;;;;11.50;3.10;;;21.00;47.20;;;;;;5066252;28;20206;-75
2023/06/02 12:40:31;;;;;;;7.53;3.10;;;20.90;47.10;;;;;;5048781;28;20188;-75
2023/06/02 12:42:58;;;;;;;8.07;3.10;;;21.00;47.20;;;;;;5044553;28;20203;-77
2023/06/02 12:45:25;;;;;;;7.85;2.88;;;21.00;47.10;;;;;;5048792;28;20746;-77
2023/06/02 12:47:55;;;;;;;8.70;3.10;;;21.00;47.10;;;;;;5049230;28;20218;-76
2023/06/02 12:50:22;;;;;;;8.40;2.80;;;21.00;47.10;;;;;;5058513;28;20210;-74
2023/06/02 12:52:50;;;;;;;8.93;3.42;;;21.00;47.00;;;;;;5051260;28;20688;-76
2023/06/02 12:55:17;;;;;;;5.07;2.55;;;21.00;47.10;;;;;;5068370;28;20230;-75